sensor_id;sensor_type;location;lat;lon;timestamp;pressure;altitude;pressure_sealevel;temperature;humidity
13235;BME280;6683;48.506;9.050;2023-04-25T00:01:07;97506.09;;;11.25;67.14
13235;BME280;6683;48.506;9.050;2023-04-25T00:04:11;97520.31;;;11.24;67.00
13235;BME280;6683;48.506;9.050;2023-04-25T00:07:14;97513.41;;;11.23;67.28
13235;BME280;6683;48.506;9.050;2023-04-25T00:10:17;97507.31;;;11.23;67.35
13235;BME280;6683;48.506;9.050;2023-04-25T00:13:20;97513.19;;;11.25;67.44
13235;BME280;6683;48.506;9.050;2023-04-25T00:16:23;97504.28;;;11.26;67.29
13235;BME280;6683;48.506;9.050;2023-04-25T00:19:27;97513.00;;;11.26;67.36
13235;BME280;6683;48.506;9.050;2023-04-25T00:22:29;97516.44;;;11.27;67.30
13235;BME280;6683;48.506;9.050;2023-04-25T00:25:32;97513.00;;;11.26;67.31
13235;BME280;6683;48.506;9.050;2023-04-25T00:28:34;97514.22;;;11.24;66.87
13235;BME280;6683;48.506;9.050;2023-04-25T00:31:37;97513.03;;;11.20;66.92
13235;BME280;6683;48.506;9.050;2023-04-25T00:34:41;97510.78;;;11.17;67.25
13235;BME280;6683;48.506;9.050;2023-04-25T00:37:43;97511.78;;;11.16;67.34
13235;BME280;6683;48.506;9.050;2023-04-25T00:40:46;97500.44;;;11.15;67.14
13235;BME280;6683;48.506;9.050;2023-04-25T00:43:48;97503.88;;;11.16;67.19
13235;BME280;6683;48.506;9.050;2023-04-25T00:46:52;97501.22;;;11.16;67.02
13235;BME280;6683;48.506;9.050;2023-04-25T00:49:57;97493.50;;;11.14;67.22
13235;BME280;6683;48.506;9.050;2023-04-25T00:52:59;97489.06;;;11.15;67.20
13235;BME280;6683;48.506;9.050;2023-04-25T00:56:03;97487.22;;;11.15;67.35
13235;BME280;6683;48.506;9.050;2023-04-25T00:59:06;97488.66;;;11.18;67.49
13235;BME280;6683;48.506;9.050;2023-04-25T01:02:09;97487.41;;;11.20;67.52
13235;BME280;6683;48.506;9.050;2023-04-25T01:05:13;97486.19;;;11.23;67.67
13235;BME280;6683;48.506;9.050;2023-04-25T01:08:16;97478.03;;;11.24;67.70
13235;BME280;6683;48.506;9.050;2023-04-25T01:11:18;97468.28;;;11.25;67.37
13235;BME280;6683;48.506;9.050;2023-04-25T01:14:21;97469.09;;;11.25;67.39
13235;BME280;6683;48.506;9.050;2023-04-25T01:17:24;97468.28;;;11.25;67.42
13235;BME280;6683;48.506;9.050;2023-04-25T01:20:29;97467.47;;;11.24;67.54
13235;BME280;6683;48.506;9.050;2023-04-25T01:23:35;97468.50;;;11.23;67.53
13235;BME280;6683;48.506;9.050;2023-04-25T01:26:38;97466.50;;;11.19;67.48
13235;BME280;6683;48.506;9.050;2023-04-25T01:29:45;97464.91;;;11.11;67.25
13235;BME280;6683;48.506;9.050;2023-04-25T01:32:48;97463.09;;;11.05;67.21
13235;BME280;6683;48.506;9.050;2023-04-25T01:35:51;97456.56;;;11.01;67.40
13235;BME280;6683;48.506;9.050;2023-04-25T01:38:55;97474.44;;;10.99;67.74
13235;BME280;6683;48.506;9.050;2023-04-25T01:41:59;97466.75;;;10.98;67.78
13235;BME280;6683;48.506;9.050;2023-04-25T01:45:03;97472.03;;;10.98;67.89
13235;BME280;6683;48.506;9.050;2023-04-25T01:48:06;97474.88;;;10.96;67.45
13235;BME280;6683;48.506;9.050;2023-04-25T01:51:08;97473.44;;;10.94;67.92
13235;BME280;6683;48.506;9.050;2023-04-25T01:54:13;97472.63;;;10.93;68.07
13235;BME280;6683;48.506;9.050;2023-04-25T01:57:16;97469.00;;;10.94;67.73
13235;BME280;6683;48.506;9.050;2023-04-25T02:00:19;97470.59;;;10.95;67.70
13235;BME280;6683;48.506;9.050;2023-04-25T02:03:22;97463.28;;;10.97;67.91
13235;BME280;6683;48.506;9.050;2023-04-25T02:06:24;97463.09;;;10.99;67.71
13235;BME280;6683;48.506;9.050;2023-04-25T02:09:28;97465.13;;;10.97;68.06
13235;BME280;6683;48.506;9.050;2023-04-25T02:12:31;97452.72;;;10.97;67.92
13235;BME280;6683;48.506;9.050;2023-04-25T02:15:34;97456.59;;;10.95;67.79
13235;BME280;6683;48.506;9.050;2023-04-25T02:18:36;97456.19;;;10.91;67.54
13235;BME280;6683;48.506;9.050;2023-04-25T02:21:40;97463.50;;;10.89;67.62
13235;BME280;6683;48.506;9.050;2023-04-25T02:24:43;97458.66;;;10.86;67.95
13235;BME280;6683;48.506;9.050;2023-04-25T02:27:46;97454.59;;;10.84;67.74
13235;BME280;6683;48.506;9.050;2023-04-25T02:30:48;97451.56;;;10.80;68.10
13235;BME280;6683;48.506;9.050;2023-04-25T02:33:51;97458.88;;;10.78;68.23
13235;BME280;6683;48.506;9.050;2023-04-25T02:36:53;97453.78;;;10.77;68.35
13235;BME280;6683;48.506;9.050;2023-04-25T02:39:57;97454.22;;;10.74;68.04
13235;BME280;6683;48.506;9.050;2023-04-25T02:42:59;97459.06;;;10.70;68.11
13235;BME280;6683;48.506;9.050;2023-04-25T02:46:01;97454.59;;;10.64;67.86
13235;BME280;6683;48.506;9.050;2023-04-25T02:49:04;97452.38;;;10.55;67.65
13235;BME280;6683;48.506;9.050;2023-04-25T02:52:07;97455.03;;;10.48;67.80
13235;BME280;6683;48.506;9.050;2023-04-25T02:55:10;97446.28;;;10.41;67.98
13235;BME280;6683;48.506;9.050;2023-04-25T02:58:13;97455.63;;;10.37;68.30
13235;BME280;6683;48.506;9.050;2023-04-25T03:01:16;97449.13;;;10.33;68.30
13235;BME280;6683;48.506;9.050;2023-04-25T03:04:19;97448.13;;;10.27;68.00
13235;BME280;6683;48.506;9.050;2023-04-25T03:07:21;97449.34;;;10.25;67.96
13235;BME280;6683;48.506;9.050;2023-04-25T03:10:26;97428.25;;;10.18;68.18
13235;BME280;6683;48.506;9.050;2023-04-25T03:13:28;97435.53;;;10.16;67.84
13235;BME280;6683;48.506;9.050;2023-04-25T03:16:31;97432.72;;;10.11;68.04
13235;BME280;6683;48.506;9.050;2023-04-25T03:19:33;97431.66;;;10.06;67.61
13235;BME280;6683;48.506;9.050;2023-04-25T03:22:36;97428.00;;;10.00;67.88
13235;BME280;6683;48.506;9.050;2023-04-25T03:25:39;97427.78;;;9.95;68.00
13235;BME280;6683;48.506;9.050;2023-04-25T03:28:42;97420.50;;;9.91;68.05
13235;BME280;6683;48.506;9.050;2023-04-25T03:31:45;97435.06;;;9.87;67.88
13235;BME280;6683;48.506;9.050;2023-04-25T03:34:48;97423.31;;;9.83;68.14
13235;BME280;6683;48.506;9.050;2023-04-25T03:37:50;97423.31;;;9.83;68.63
13235;BME280;6683;48.506;9.050;2023-04-25T03:40:54;97420.66;;;9.83;68.35
13235;BME280;6683;48.506;9.050;2023-04-25T03:43:57;97423.31;;;9.83;68.46
13235;BME280;6683;48.506;9.050;2023-04-25T03:46:59;97420.06;;;9.81;68.32
13235;BME280;6683;48.506;9.050;2023-04-25T03:50:01;97415.00;;;9.79;68.09
13235;BME280;6683;48.506;9.050;2023-04-25T03:53:04;97422.69;;;9.74;68.44
13235;BME280;6683;48.506;9.050;2023-04-25T03:56:08;97423.91;;;9.72;68.34
13235;BME280;6683;48.506;9.050;2023-04-25T03:59:10;97428.56;;;9.70;68.58
13235;BME280;6683;48.506;9.050;2023-04-25T04:02:13;97435.03;;;9.67;68.37
13235;BME280;6683;48.506;9.050;2023-04-25T04:05:15;97427.34;;;9.65;68.59
13235;BME280;6683;48.506;9.050;2023-04-25T04:08:18;97424.72;;;9.65;68.74
13235;BME280;6683;48.506;9.050;2023-04-25T04:11:21;97425.50;;;9.66;68.62
13235;BME280;6683;48.506;9.050;2023-04-25T04:14:23;97433.00;;;9.69;68.52
13235;BME280;6683;48.506;9.050;2023-04-25T04:17:25;97418.81;;;9.70;68.77
13235;BME280;6683;48.506;9.050;2023-04-25T04:20:28;97421.28;;;9.72;68.72
13235;BME280;6683;48.506;9.050;2023-04-25T04:23:31;97422.06;;;9.72;68.72
13235;BME280;6683;48.506;9.050;2023-04-25T04:26:35;97421.28;;;9.72;68.71
13235;BME280;6683;48.506;9.050;2023-04-25T04:29:39;97416.19;;;9.70;68.34
13235;BME280;6683;48.506;9.050;2023-04-25T04:32:42;97422.28;;;9.71;68.43
13235;BME280;6683;48.506;9.050;2023-04-25T04:35:44;97430.59;;;9.68;68.78
13235;BME280;6683;48.506;9.050;2023-04-25T04:38:47;97432.00;;;9.63;68.40
13235;BME280;6683;48.506;9.050;2023-04-25T04:41:51;97438.69;;;9.59;68.77
13235;BME280;6683;48.506;9.050;2023-04-25T04:44:54;97439.88;;;9.57;68.81
13235;BME280;6683;48.506;9.050;2023-04-25T04:47:57;97444.53;;;9.55;68.90
13235;BME280;6683;48.506;9.050;2023-04-25T04:51:00;97435.81;;;9.54;68.56
13235;BME280;6683;48.506;9.050;2023-04-25T04:54:03;97448.56;;;9.57;68.83
13235;BME280;6683;48.506;9.050;2023-04-25T04:57:07;97452.47;;;9.61;69.00
13235;BME280;6683;48.506;9.050;2023-04-25T05:00:11;97457.13;;;9.66;68.90
13235;BME280;6683;48.506;9.050;2023-04-25T05:03:14;97462.63;;;9.71;69.09
13235;BME280;6683;48.506;9.050;2023-04-25T05:06:16;97466.47;;;9.75;69.25
13235;BME280;6683;48.506;9.050;2023-04-25T05:09:19;97456.16;;;9.80;69.17
13235;BME280;6683;48.506;9.050;2023-04-25T05:12:22;97461.00;;;9.83;69.08
13235;BME280;6683;48.506;9.050;2023-04-25T05:15:25;97465.50;;;9.89;69.04
13235;BME280;6683;48.506;9.050;2023-04-25T05:18:28;97450.09;;;9.93;69.35
13235;BME280;6683;48.506;9.050;2023-04-25T05:21:30;97455.38;;;9.99;69.08
13235;BME280;6683;48.506;9.050;2023-04-25T05:24:33;97448.28;;;10.06;69.36
13235;BME280;6683;48.506;9.050;2023-04-25T05:27:37;97444.06;;;10.12;69.11
13235;BME280;6683;48.506;9.050;2023-04-25T05:30:39;97443.66;;;10.21;69.29
13235;BME280;6683;48.506;9.050;2023-04-25T05:33:42;97429.88;;;10.26;68.82
13235;BME280;6683;48.506;9.050;2023-04-25T05:36:44;97437.38;;;10.29;69.26
13235;BME280;6683;48.506;9.050;2023-04-25T05:39:49;97442.03;;;10.33;68.92
13235;BME280;6683;48.506;9.050;2023-04-25T05:42:53;97436.38;;;10.36;69.25
13235;BME280;6683;48.506;9.050;2023-04-25T05:45:56;97443.25;;;10.44;69.39
13235;BME280;6683;48.506;9.050;2023-04-25T05:48:58;97438.00;;;10.51;69.40
13235;BME280;6683;48.506;9.050;2023-04-25T05:52:01;97442.66;;;10.62;69.86
13235;BME280;6683;48.506;9.050;2023-04-25T05:55:04;97434.91;;;10.73;69.85
13235;BME280;6683;48.506;9.050;2023-04-25T05:58:08;97429.19;;;10.83;69.58
13235;BME280;6683;48.506;9.050;2023-04-25T06:01:11;97432.03;;;10.94;69.55
13235;BME280;6683;48.506;9.050;2023-04-25T06:04:15;97442.75;;;11.06;69.76
13235;BME280;6683;48.506;9.050;2023-04-25T06:07:17;97447.41;;;11.17;69.64
13235;BME280;6683;48.506;9.050;2023-04-25T06:10:20;97443.69;;;11.24;69.20
13235;BME280;6683;48.506;9.050;2023-04-25T06:13:25;97442.25;;;11.28;69.35
13235;BME280;6683;48.506;9.050;2023-04-25T06:16:27;97451.41;;;11.33;69.28
13235;BME280;6683;48.506;9.050;2023-04-25T06:19:30;97455.03;;;11.38;69.45
13235;BME280;6683;48.506;9.050;2023-04-25T06:22:32;97455.03;;;11.45;69.36
13235;BME280;6683;48.506;9.050;2023-04-25T06:25:35;97446.47;;;11.49;69.48
13235;BME280;6683;48.506;9.050;2023-04-25T06:28:39;97449.28;;;11.54;69.15
13235;BME280;6683;48.506;9.050;2023-04-25T06:31:41;97445.19;;;11.58;69.08
13235;BME280;6683;48.506;9.050;2023-04-25T06:34:43;97445.38;;;11.63;69.07
13235;BME280;6683;48.506;9.050;2023-04-25T06:37:46;97451.69;;;11.69;69.38
13235;BME280;6683;48.506;9.050;2023-04-25T06:40:48;97455.50;;;11.73;69.12
13235;BME280;6683;48.506;9.050;2023-04-25T06:43:52;97452.25;;;11.77;68.97
13235;BME280;6683;48.506;9.050;2023-04-25T06:46:54;97444.91;;;11.79;68.96
13235;BME280;6683;48.506;9.050;2023-04-25T06:49:57;97457.91;;;11.81;68.31
13235;BME280;6683;48.506;9.050;2023-04-25T06:52:59;97449.19;;;11.80;68.59
13235;BME280;6683;48.506;9.050;2023-04-25T06:56:02;97448.38;;;11.80;68.49
13235;BME280;6683;48.506;9.050;2023-04-25T06:59:06;97451.22;;;11.78;68.59
13235;BME280;6683;48.506;9.050;2023-04-25T07:02:10;97451.44;;;11.77;68.08
13235;BME280;6683;48.506;9.050;2023-04-25T07:05:12;97455.50;;;11.73;67.84
13235;BME280;6683;48.506;9.050;2023-04-25T07:08:14;97455.13;;;11.69;68.29
13235;BME280;6683;48.506;9.050;2023-04-25T07:11:17;97445.78;;;11.67;67.84
13235;BME280;6683;48.506;9.050;2023-04-25T07:14:21;97456.56;;;11.65;68.14
13235;BME280;6683;48.506;9.050;2023-04-25T07:17:23;97462.84;;;11.64;67.92
13235;BME280;6683;48.506;9.050;2023-04-25T07:20:26;97454.72;;;11.66;67.89
13235;BME280;6683;48.506;9.050;2023-04-25T07:23:29;97456.78;;;11.64;67.73
13235;BME280;6683;48.506;9.050;2023-04-25T07:26:31;97450.66;;;11.63;68.39
13235;BME280;6683;48.506;9.050;2023-04-25T07:29:35;97459.41;;;11.64;67.70
13235;BME280;6683;48.506;9.050;2023-04-25T07:32:39;97465.72;;;11.63;67.98
13235;BME280;6683;48.506;9.050;2023-04-25T07:35:41;97471.22;;;11.61;68.13
13235;BME280;6683;48.506;9.050;2023-04-25T07:38:44;97471.22;;;11.61;68.17
13235;BME280;6683;48.506;9.050;2023-04-25T07:41:46;97475.28;;;11.64;68.35
13235;BME280;6683;48.506;9.050;2023-04-25T07:44:50;97474.88;;;11.67;68.33
13235;BME280;6683;48.506;9.050;2023-04-25T07:47:52;97477.88;;;11.70;67.99
13235;BME280;6683;48.506;9.050;2023-04-25T07:50:55;97483.00;;;11.72;68.20
13235;BME280;6683;48.506;9.050;2023-04-25T07:53:58;97486.63;;;11.71;67.90
13235;BME280;6683;48.506;9.050;2023-04-25T07:57:01;97491.31;;;11.69;67.81
13235;BME280;6683;48.506;9.050;2023-04-25T08:00:08;97495.78;;;11.68;68.14
13235;BME280;6683;48.506;9.050;2023-04-25T08:03:12;97505.59;;;11.68;68.23
13235;BME280;6683;48.506;9.050;2023-04-25T08:06:14;97500.28;;;11.68;68.37
13235;BME280;6683;48.506;9.050;2023-04-25T08:09:17;97504.53;;;11.69;68.31
13235;BME280;6683;48.506;9.050;2023-04-25T08:12:19;97516.31;;;11.73;68.45
13235;BME280;6683;48.506;9.050;2023-04-25T08:15:22;97516.31;;;11.73;68.39
13235;BME280;6683;48.506;9.050;2023-04-25T08:18:26;97519.78;;;11.73;68.02
13235;BME280;6683;48.506;9.050;2023-04-25T08:21:28;97528.72;;;11.72;67.83
13235;BME280;6683;48.506;9.050;2023-04-25T08:24:31;97538.09;;;11.68;67.78
13235;BME280;6683;48.506;9.050;2023-04-25T08:27:33;97539.72;;;11.63;67.80
13235;BME280;6683;48.506;9.050;2023-04-25T08:30:37;97548.47;;;11.57;67.88
13235;BME280;6683;48.506;9.050;2023-04-25T08:33:39;97553.38;;;11.53;68.30
13235;BME280;6683;48.506;9.050;2023-04-25T08:36:41;97562.31;;;11.52;68.35
13235;BME280;6683;48.506;9.050;2023-04-25T08:39:44;97565.56;;;11.48;68.31
13235;BME280;6683;48.506;9.050;2023-04-25T08:42:49;97564.38;;;11.44;68.26
13235;BME280;6683;48.506;9.050;2023-04-25T08:45:54;97569.47;;;11.39;68.14
13235;BME280;6683;48.506;9.050;2023-04-25T08:49:01;97574.16;;;11.37;68.30
13235;BME280;6683;48.506;9.050;2023-04-25T08:52:04;97583.09;;;11.36;68.47
13235;BME280;6683;48.506;9.050;2023-04-25T08:55:10;97587.97;;;11.32;68.23
13235;BME280;6683;48.506;9.050;2023-04-25T08:58:14;97594.69;;;11.28;68.38
13235;BME280;6683;48.506;9.050;2023-04-25T09:01:18;97606.47;;;11.25;68.30
13235;BME280;6683;48.506;9.050;2023-04-25T09:04:21;97611.56;;;11.20;68.36
13235;BME280;6683;48.506;9.050;2023-04-25T09:07:23;97618.69;;;11.13;68.27
13235;BME280;6683;48.506;9.050;2023-04-25T09:10:26;97622.13;;;11.07;68.24
13235;BME280;6683;48.506;9.050;2023-04-25T09:13:29;97624.34;;;10.97;68.16
13235;BME280;6683;48.506;9.050;2023-04-25T09:16:33;97626.59;;;10.87;68.27
13235;BME280;6683;48.506;9.050;2023-04-25T09:19:37;97633.69;;;10.80;68.37
13235;BME280;6683;48.506;9.050;2023-04-25T09:22:41;97642.84;;;10.78;68.42
13235;BME280;6683;48.506;9.050;2023-04-25T09:25:43;97649.53;;;10.74;68.47
13235;BME280;6683;48.506;9.050;2023-04-25T09:28:46;97648.69;;;10.67;68.56
13235;BME280;6683;48.506;9.050;2023-04-25T09:31:51;97653.53;;;10.57;67.98
13235;BME280;6683;48.506;9.050;2023-04-25T09:34:54;97668.50;;;10.43;68.20
13235;BME280;6683;48.506;9.050;2023-04-25T09:37:57;97678.22;;;10.29;68.16
13235;BME280;6683;48.506;9.050;2023-04-25T09:41:00;97688.09;;;10.14;68.38
13235;BME280;6683;48.506;9.050;2023-04-25T09:44:03;97689.81;;;10.01;68.56
13235;BME280;6683;48.506;9.050;2023-04-25T09:47:10;97691.56;;;9.87;68.69
13235;BME280;6683;48.506;9.050;2023-04-25T09:50:16;97698.19;;;9.77;68.49
13235;BME280;6683;48.506;9.050;2023-04-25T09:53:20;97712.06;;;9.64;68.49
13235;BME280;6683;48.506;9.050;2023-04-25T09:56:22;97712.22;;;9.56;69.17
13235;BME280;6683;48.506;9.050;2023-04-25T09:59:25;97712.19;;;9.49;69.04
13235;BME280;6683;48.506;9.050;2023-04-25T10:02:29;97718.84;;;9.45;69.56
13235;BME280;6683;48.506;9.050;2023-04-25T10:05:34;97725.50;;;9.41;69.63
13235;BME280;6683;48.506;9.050;2023-04-25T10:08:38;97725.25;;;9.36;69.69
13235;BME280;6683;48.506;9.050;2023-04-25T10:11:41;97725.44;;;9.35;69.76
13235;BME280;6683;48.506;9.050;2023-04-25T10:14:44;97731.09;;;9.32;69.76
13235;BME280;6683;48.506;9.050;2023-04-25T10:17:49;97737.34;;;9.31;70.19
13235;BME280;6683;48.506;9.050;2023-04-25T10:20:54;97737.13;;;9.26;70.17
13235;BME280;6683;48.506;9.050;2023-04-25T10:23:57;97740.75;;;9.25;70.39
13235;BME280;6683;48.506;9.050;2023-04-25T10:27:00;97745.59;;;9.21;70.30
13235;BME280;6683;48.506;9.050;2023-04-25T10:30:05;97745.50;;;9.15;70.50
13235;BME280;6683;48.506;9.050;2023-04-25T10:33:18;97746.28;;;9.09;70.25
13235;BME280;6683;48.506;9.050;2023-04-25T10:36:22;97751.47;;;9.02;70.59
13235;BME280;6683;48.506;9.050;2023-04-25T10:39:27;97757.28;;;8.98;70.78
13235;BME280;6683;48.506;9.050;2023-04-25T10:42:29;97746.94;;;8.96;70.80
13235;BME280;6683;48.506;9.050;2023-04-25T10:45:51;97754.41;;;8.93;71.19
13235;BME280;6683;48.506;9.050;2023-04-25T10:48:56;97759.50;;;8.94;71.10
13235;BME280;6683;48.506;9.050;2023-04-25T10:52:24;97764.19;;;8.99;71.73
13235;BME280;6683;48.506;9.050;2023-04-25T10:55:27;97766.91;;;9.05;71.47
13235;BME280;6683;48.506;9.050;2023-04-25T10:58:49;97763.53;;;9.11;71.85
13235;BME280;6683;48.506;9.050;2023-04-25T11:01:52;97770.47;;;9.19;72.10
13235;BME280;6683;48.506;9.050;2023-04-25T11:04:56;97774.41;;;9.29;72.29
13235;BME280;6683;48.506;9.050;2023-04-25T11:08:00;97773.91;;;9.40;72.11
13235;BME280;6683;48.506;9.050;2023-04-25T11:11:04;97772.13;;;9.47;72.15
13235;BME280;6683;48.506;9.050;2023-04-25T11:14:06;97775.41;;;9.49;71.76
13235;BME280;6683;48.506;9.050;2023-04-25T11:17:09;97778.22;;;9.48;71.59
13235;BME280;6683;48.506;9.050;2023-04-25T11:20:14;97785.94;;;9.49;71.84
13235;BME280;6683;48.506;9.050;2023-04-25T11:23:17;97786.75;;;9.50;71.99
13235;BME280;6683;48.506;9.050;2023-04-25T11:26:19;97783.50;;;9.48;71.98
13235;BME280;6683;48.506;9.050;2023-04-25T11:29:22;97789.41;;;9.50;71.92
13235;BME280;6683;48.506;9.050;2023-04-25T11:32:25;97780.94;;;9.54;71.91
13235;BME280;6683;48.506;9.050;2023-04-25T11:35:29;97780.72;;;9.56;71.89
13235;BME280;6683;48.506;9.050;2023-04-25T11:38:31;97778.16;;;9.62;72.18
13235;BME280;6683;48.506;9.050;2023-04-25T11:41:34;97785.09;;;9.70;72.60
13235;BME280;6683;48.506;9.050;2023-04-25T11:44:38;97774.25;;;9.80;72.81
13235;BME280;6683;48.506;9.050;2023-04-25T11:47:41;97781.78;;;9.89;72.72
13235;BME280;6683;48.506;9.050;2023-04-25T11:50:45;97787.16;;;10.02;72.71
13235;BME280;6683;48.506;9.050;2023-04-25T11:53:47;97789.31;;;10.13;72.77
13235;BME280;6683;48.506;9.050;2023-04-25T11:56:50;97796.50;;;10.26;72.71
13235;BME280;6683;48.506;9.050;2023-04-25T11:59:52;97795.34;;;10.41;72.81
13235;BME280;6683;48.506;9.050;2023-04-25T12:02:56;97782.44;;;10.53;72.70
13235;BME280;6683;48.506;9.050;2023-04-25T12:06:04;97794.03;;;10.59;72.54
13235;BME280;6683;48.506;9.050;2023-04-25T12:09:09;97790.84;;;10.70;72.52
13235;BME280;6683;48.506;9.050;2023-04-25T12:12:12;97799.59;;;10.83;72.61
13235;BME280;6683;48.506;9.050;2023-04-25T12:15:16;97798.22;;;10.94;72.64
13235;BME280;6683;48.506;9.050;2023-04-25T12:18:20;97800.09;;;11.06;72.20
13235;BME280;6683;48.506;9.050;2023-04-25T12:21:29;97799.72;;;11.09;71.80
13235;BME280;6683;48.506;9.050;2023-04-25T12:24:34;97800.91;;;11.07;71.63
13235;BME280;6683;48.506;9.050;2023-04-25T12:27:37;97796.00;;;11.04;72.21
13235;BME280;6683;48.506;9.050;2023-04-25T12:31:00;97806.41;;;11.05;72.25
13235;BME280;6683;48.506;9.050;2023-04-25T12:34:03;97807.00;;;11.07;72.04
13235;BME280;6683;48.506;9.050;2023-04-25T12:37:06;97814.72;;;11.09;71.94
13235;BME280;6683;48.506;9.050;2023-04-25T12:40:10;97815.72;;;11.08;72.01
13235;BME280;6683;48.506;9.050;2023-04-25T12:43:13;97818.16;;;11.03;71.58
13235;BME280;6683;48.506;9.050;2023-04-25T12:46:15;97818.34;;;11.01;71.73
13235;BME280;6683;48.506;9.050;2023-04-25T12:49:18;97818.34;;;11.01;71.74
13235;BME280;6683;48.506;9.050;2023-04-25T12:52:21;97815.13;;;11.06;72.26
13235;BME280;6683;48.506;9.050;2023-04-25T12:55:24;97810.09;;;11.17;72.86
13235;BME280;6683;48.506;9.050;2023-04-25T12:58:27;97818.03;;;11.31;72.56
13235;BME280;6683;48.506;9.050;2023-04-25T13:01:29;97807.91;;;11.47;72.88
13235;BME280;6683;48.506;9.050;2023-04-25T13:04:32;97814.06;;;11.67;72.77
13235;BME280;6683;48.506;9.050;2023-04-25T13:07:36;97814.69;;;11.89;72.68
13235;BME280;6683;48.506;9.050;2023-04-25T13:10:39;97810.19;;;12.02;71.95
13235;BME280;6683;48.506;9.050;2023-04-25T13:13:41;97816.91;;;11.98;71.64
13235;BME280;6683;48.506;9.050;2023-04-25T13:16:44;97821.16;;;11.99;71.55
13235;BME280;6683;48.506;9.050;2023-04-25T13:19:46;97817.91;;;11.97;71.75
13235;BME280;6683;48.506;9.050;2023-04-25T13:22:50;97820.78;;;11.96;71.52
13235;BME280;6683;48.506;9.050;2023-04-25T13:25:53;97817.50;;;11.94;71.73
13235;BME280;6683;48.506;9.050;2023-04-25T13:28:56;97821.97;;;12.00;72.19
13235;BME280;6683;48.506;9.050;2023-04-25T13:32:01;97816.47;;;12.08;72.17
13235;BME280;6683;48.506;9.050;2023-04-25T13:35:04;97813.00;;;12.14;72.32
13235;BME280;6683;48.506;9.050;2023-04-25T13:38:08;97814.88;;;12.20;72.31
13235;BME280;6683;48.506;9.050;2023-04-25T13:41:11;97817.28;;;12.28;72.26
13235;BME280;6683;48.506;9.050;2023-04-25T13:44:18;97819.50;;;12.38;72.08
13235;BME280;6683;48.506;9.050;2023-04-25T13:47:20;97820.09;;;12.46;72.27
13235;BME280;6683;48.506;9.050;2023-04-25T13:50:22;97825.38;;;12.59;72.05
13235;BME280;6683;48.506;9.050;2023-04-25T13:53:27;97818.19;;;12.66;71.39
13235;BME280;6683;48.506;9.050;2023-04-25T13:56:30;97823.31;;;12.68;71.20
13235;BME280;6683;48.506;9.050;2023-04-25T13:59:32;97825.94;;;12.74;71.46
13235;BME280;6683;48.506;9.050;2023-04-25T14:02:35;97831.63;;;12.78;70.88
13235;BME280;6683;48.506;9.050;2023-04-25T14:05:37;97823.91;;;12.76;70.59
13235;BME280;6683;48.506;9.050;2023-04-25T14:08:42;97825.72;;;12.76;70.87
13235;BME280;6683;48.506;9.050;2023-04-25T14:11:45;97830.41;;;12.74;70.57
13235;BME280;6683;48.506;9.050;2023-04-25T14:14:47;97834.06;;;12.73;70.72
13235;BME280;6683;48.506;9.050;2023-04-25T14:17:49;97841.19;;;12.79;71.05
13235;BME280;6683;48.506;9.050;2023-04-25T14:20:52;97838.94;;;12.89;71.16
13235;BME280;6683;48.506;9.050;2023-04-25T14:23:55;97837.25;;;13.08;71.45
13235;BME280;6683;48.506;9.050;2023-04-25T14:26:57;97832.06;;;13.26;71.16
13235;BME280;6683;48.506;9.050;2023-04-25T14:30:00;97835.66;;;13.38;71.11
13235;BME280;6683;48.506;9.050;2023-04-25T14:33:03;97836.84;;;13.42;70.71
13235;BME280;6683;48.506;9.050;2023-04-25T14:36:06;97844.22;;;13.40;70.67
13235;BME280;6683;48.506;9.050;2023-04-25T14:39:10;97838.50;;;13.43;70.77
13235;BME280;6683;48.506;9.050;2023-04-25T14:42:13;97841.94;;;13.43;70.27
13235;BME280;6683;48.506;9.050;2023-04-25T14:45:15;97833.94;;;13.50;70.63
13235;BME280;6683;48.506;9.050;2023-04-25T14:48:18;97835.59;;;13.51;70.60
13235;BME280;6683;48.506;9.050;2023-04-25T14:51:21;97834.16;;;13.48;70.50
13235;BME280;6683;48.506;9.050;2023-04-25T14:54:24;97828.25;;;13.46;70.93
13235;BME280;6683;48.506;9.050;2023-04-25T14:57:27;97827.41;;;13.52;71.26
13235;BME280;6683;48.506;9.050;2023-04-25T15:00:29;97832.66;;;13.59;70.96
13235;BME280;6683;48.506;9.050;2023-04-25T15:03:32;97834.09;;;13.61;70.68
13235;BME280;6683;48.506;9.050;2023-04-25T15:06:35;97830.41;;;13.62;70.68
13235;BME280;6683;48.506;9.050;2023-04-25T15:09:40;97835.50;;;13.64;70.75
13235;BME280;6683;48.506;9.050;2023-04-25T15:12:42;97834.69;;;13.63;70.66
13235;BME280;6683;48.506;9.050;2023-04-25T15:15:44;97837.59;;;13.55;69.91
13235;BME280;6683;48.506;9.050;2023-04-25T15:18:51;97838.88;;;13.46;70.18
13235;BME280;6683;48.506;9.050;2023-04-25T15:21:54;97836.22;;;13.46;70.51
13235;BME280;6683;48.506;9.050;2023-04-25T15:24:57;97838.88;;;13.46;70.54
13235;BME280;6683;48.506;9.050;2023-04-25T15:28:00;97828.69;;;13.43;70.51
13235;BME280;6683;48.506;9.050;2023-04-25T15:31:02;97841.75;;;13.45;70.66
13235;BME280;6683;48.506;9.050;2023-04-25T15:34:05;97844.78;;;13.48;70.92
13235;BME280;6683;48.506;9.050;2023-04-25T15:37:07;97842.34;;;13.47;70.94
13235;BME280;6683;48.506;9.050;2023-04-25T15:40:15;97849.28;;;13.41;71.17
13235;BME280;6683;48.506;9.050;2023-04-25T15:43:17;97843.97;;;13.41;71.36
13235;BME280;6683;48.506;9.050;2023-04-25T15:46:20;97842.38;;;13.40;71.37
13235;BME280;6683;48.506;9.050;2023-04-25T15:49:23;97845.81;;;13.47;71.79
13235;BME280;6683;48.506;9.050;2023-04-25T15:52:26;97840.66;;;13.52;71.93
13235;BME280;6683;48.506;9.050;2023-04-25T15:55:29;97846.31;;;13.62;71.99
13235;BME280;6683;48.506;9.050;2023-04-25T15:58:32;97837.06;;;13.72;72.01
13235;BME280;6683;48.506;9.050;2023-04-25T16:01:34;97842.16;;;13.73;71.43
13235;BME280;6683;48.506;9.050;2023-04-25T16:04:38;97843.47;;;13.64;71.17
13235;BME280;6683;48.506;9.050;2023-04-25T16:07:42;97842.91;;;13.55;71.47
13235;BME280;6683;48.506;9.050;2023-04-25T16:10:46;97852.09;;;13.53;71.56
13235;BME280;6683;48.506;9.050;2023-04-25T16:13:49;97848.25;;;13.49;71.58
13235;BME280;6683;48.506;9.050;2023-04-25T16:16:51;97850.91;;;13.49;71.85
13235;BME280;6683;48.506;9.050;2023-04-25T16:19:54;97849.25;;;13.48;71.88
13235;BME280;6683;48.506;9.050;2023-04-25T16:22:57;97846.41;;;13.49;72.00
13235;BME280;6683;48.506;9.050;2023-04-25T16:26:01;97845.75;;;13.54;72.33